sensor_id;sensor_type;location;lat;lon;timestamp;temperature;humidity
17331;DHT22;8783;52.448;4.638;2024-01-06T00:01:02;15.70;99.90
17331;DHT22;8783;52.448;4.638;2024-01-06T00:03:27;15.70;99.90
17331;DHT22;8783;52.448;4.638;2024-01-06T00:05:53;15.70;99.90
17331;DHT22;8783;52.448;4.638;2024-01-06T00:08:19;15.70;99.90
17331;DHT22;8783;52.448;4.638;2024-01-06T00:10:44;15.70;99.90
17331;DHT22;8783;52.448;4.638;2024-01-06T00:13:10;15.70;99.90
17331;DHT22;8783;52.448;4.638;2024-01-06T00:15:36;15.70;99.90
17331;DHT22;8783;52.448;4.638;2024-01-06T00:18:02;15.70;99.90
17331;DHT22;8783;52.448;4.638;2024-01-06T00:20:30;15.70;99.90
17331;DHT22;8783;52.448;4.638;2024-01-06T00:22:59;15.70;99.90
17331;DHT22;8783;52.448;4.638;2024-01-06T00:25:27;15.70;99.90
17331;DHT22;8783;52.448;4.638;2024-01-06T00:27:53;15.70;99.90
17331;DHT22;8783;52.448;4.638;2024-01-06T00:30:18;15.70;99.90
17331;DHT22;8783;52.448;4.638;2024-01-06T00:32:44;15.70;99.90
17331;DHT22;8783;52.448;4.638;2024-01-06T00:35:12;15.70;99.90
17331;DHT22;8783;52.448;4.638;2024-01-06T00:37:38;15.70;99.90
17331;DHT22;8783;52.448;4.638;2024-01-06T00:40:04;15.70;99.90
17331;DHT22;8783;52.448;4.638;2024-01-06T00:42:30;15.70;99.90
17331;DHT22;8783;52.448;4.638;2024-01-06T00:44:59;15.70;99.90
17331;DHT22;8783;52.448;4.638;2024-01-06T00:47:24;15.60;99.90
17331;DHT22;8783;52.448;4.638;2024-01-06T00:49:50;15.70;99.90
17331;DHT22;8783;52.448;4.638;2024-01-06T00:52:16;15.70;99.90
17331;DHT22;8783;52.448;4.638;2024-01-06T00:54:41;15.70;99.90
17331;DHT22;8783;52.448;4.638;2024-01-06T00:57:07;15.70;99.90
17331;DHT22;8783;52.448;4.638;2024-01-06T00:59:33;15.60;99.90
17331;DHT22;8783;52.448;4.638;2024-01-06T01:01:58;15.60;99.90
17331;DHT22;8783;52.448;4.638;2024-01-06T01:04:24;15.60;99.90
17331;DHT22;8783;52.448;4.638;2024-01-06T01:06:50;15.60;99.90
17331;DHT22;8783;52.448;4.638;2024-01-06T01:09:15;15.60;99.90
17331;DHT22;8783;52.448;4.638;2024-01-06T01:11:41;15.60;99.90
17331;DHT22;8783;52.448;4.638;2024-01-06T01:14:07;15.60;99.90
17331;DHT22;8783;52.448;4.638;2024-01-06T01:16:33;15.60;99.90
17331;DHT22;8783;52.448;4.638;2024-01-06T01:18:58;15.60;99.90
17331;DHT22;8783;52.448;4.638;2024-01-06T01:21:24;15.60;99.90
17331;DHT22;8783;52.448;4.638;2024-01-06T01:23:50;15.60;99.90
17331;DHT22;8783;52.448;4.638;2024-01-06T01:26:15;15.60;99.90
17331;DHT22;8783;52.448;4.638;2024-01-06T01:28:41;15.60;99.90
17331;DHT22;8783;52.448;4.638;2024-01-06T01:31:09;15.60;99.90
17331;DHT22;8783;52.448;4.638;2024-01-06T01:33:35;15.60;99.90
17331;DHT22;8783;52.448;4.638;2024-01-06T01:36:01;15.60;99.90
17331;DHT22;8783;52.448;4.638;2024-01-06T01:38:26;15.60;99.90
17331;DHT22;8783;52.448;4.638;2024-01-06T01:40:52;15.60;99.90
17331;DHT22;8783;52.448;4.638;2024-01-06T01:43:21;15.60;99.90
17331;DHT22;8783;52.448;4.638;2024-01-06T01:45:50;15.60;99.90
17331;DHT22;8783;52.448;4.638;2024-01-06T01:48:19;15.50;99.90
17331;DHT22;8783;52.448;4.638;2024-01-06T01:50:45;15.60;99.90
17331;DHT22;8783;52.448;4.638;2024-01-06T01:53:12;15.60;99.90
17331;DHT22;8783;52.448;4.638;2024-01-06T01:55:38;15.50;99.90
17331;DHT22;8783;52.448;4.638;2024-01-06T01:58:05;15.60;99.90
17331;DHT22;8783;52.448;4.638;2024-01-06T02:00:31;15.60;99.90
17331;DHT22;8783;52.448;4.638;2024-01-06T02:02:59;15.50;99.90
17331;DHT22;8783;52.448;4.638;2024-01-06T02:05:25;15.60;99.90
17331;DHT22;8783;52.448;4.638;2024-01-06T02:07:50;15.60;99.90
17331;DHT22;8783;52.448;4.638;2024-01-06T02:10:19;15.50;99.90
17331;DHT22;8783;52.448;4.638;2024-01-06T02:12:45;15.60;99.90
17331;DHT22;8783;52.448;4.638;2024-01-06T02:15:10;15.50;99.90
17331;DHT22;8783;52.448;4.638;2024-01-06T02:17:36;15.50;99.90
17331;DHT22;8783;52.448;4.638;2024-01-06T02:20:02;15.60;99.90
17331;DHT22;8783;52.448;4.638;2024-01-06T02:22:29;15.60;99.90
17331;DHT22;8783;52.448;4.638;2024-01-06T02:24:54;15.50;99.90
17331;DHT22;8783;52.448;4.638;2024-01-06T02:27:20;15.50;99.90
17331;DHT22;8783;52.448;4.638;2024-01-06T02:29:46;15.60;99.90
17331;DHT22;8783;52.448;4.638;2024-01-06T02:32:11;15.60;99.90
17331;DHT22;8783;52.448;4.638;2024-01-06T02:34:37;15.50;99.90
17331;DHT22;8783;52.448;4.638;2024-01-06T02:37:03;15.60;99.90
17331;DHT22;8783;52.448;4.638;2024-01-06T02:39:29;15.50;99.90
17331;DHT22;8783;52.448;4.638;2024-01-06T02:41:55;15.50;99.90
17331;DHT22;8783;52.448;4.638;2024-01-06T02:44:20;15.60;99.90
17331;DHT22;8783;52.448;4.638;2024-01-06T02:46:46;15.60;99.90
17331;DHT22;8783;52.448;4.638;2024-01-06T02:49:12;15.50;99.90
17331;DHT22;8783;52.448;4.638;2024-01-06T02:51:37;15.50;99.90
17331;DHT22;8783;52.448;4.638;2024-01-06T02:54:03;15.60;99.90
17331;DHT22;8783;52.448;4.638;2024-01-06T02:56:32;15.50;99.90
17331;DHT22;8783;52.448;4.638;2024-01-06T02:58:57;15.50;99.90
17331;DHT22;8783;52.448;4.638;2024-01-06T03:01:23;15.50;99.90
17331;DHT22;8783;52.448;4.638;2024-01-06T03:03:48;15.50;99.90
17331;DHT22;8783;52.448;4.638;2024-01-06T03:06:14;15.60;99.90
17331;DHT22;8783;52.448;4.638;2024-01-06T03:08:40;15.50;99.90
17331;DHT22;8783;52.448;4.638;2024-01-06T03:11:05;15.50;99.90
17331;DHT22;8783;52.448;4.638;2024-01-06T03:13:31;15.50;99.90
17331;DHT22;8783;52.448;4.638;2024-01-06T03:15:57;15.50;99.90
17331;DHT22;8783;52.448;4.638;2024-01-06T03:18:22;15.50;99.90
17331;DHT22;8783;52.448;4.638;2024-01-06T03:20:48;15.50;99.90
17331;DHT22;8783;52.448;4.638;2024-01-06T03:23:13;15.50;99.90
17331;DHT22;8783;52.448;4.638;2024-01-06T03:25:39;15.50;99.90
17331;DHT22;8783;52.448;4.638;2024-01-06T03:28:05;15.50;99.90
17331;DHT22;8783;52.448;4.638;2024-01-06T03:30:30;15.50;99.90
17331;DHT22;8783;52.448;4.638;2024-01-06T03:32:56;15.50;99.90
17331;DHT22;8783;52.448;4.638;2024-01-06T03:35:22;15.50;99.90
17331;DHT22;8783;52.448;4.638;2024-01-06T03:37:47;15.50;99.90
17331;DHT22;8783;52.448;4.638;2024-01-06T03:40:13;15.50;99.90
17331;DHT22;8783;52.448;4.638;2024-01-06T03:42:39;15.50;99.90
17331;DHT22;8783;52.448;4.638;2024-01-06T03:45:04;15.50;99.90
17331;DHT22;8783;52.448;4.638;2024-01-06T03:47:30;15.50;99.90
17331;DHT22;8783;52.448;4.638;2024-01-06T03:49:56;15.50;99.90
17331;DHT22;8783;52.448;4.638;2024-01-06T03:52:21;15.50;99.90
17331;DHT22;8783;52.448;4.638;2024-01-06T03:54:47;15.50;99.90
17331;DHT22;8783;52.448;4.638;2024-01-06T03:57:12;15.50;99.90
17331;DHT22;8783;52.448;4.638;2024-01-06T03:59:38;15.50;99.90
17331;DHT22;8783;52.448;4.638;2024-01-06T04:02:04;15.50;99.90
17331;DHT22;8783;52.448;4.638;2024-01-06T04:04:29;15.50;99.90
17331;DHT22;8783;52.448;4.638;2024-01-06T04:06:55;15.50;99.90
17331;DHT22;8783;52.448;4.638;2024-01-06T04:09:21;15.50;99.90
17331;DHT22;8783;52.448;4.638;2024-01-06T04:11:46;15.50;99.90
17331;DHT22;8783;52.448;4.638;2024-01-06T04:14:12;15.50;99.90
17331;DHT22;8783;52.448;4.638;2024-01-06T04:16:38;15.50;99.90
17331;DHT22;8783;52.448;4.638;2024-01-06T04:19:03;15.50;99.90
17331;DHT22;8783;52.448;4.638;2024-01-06T04:21:32;15.50;99.90
17331;DHT22;8783;52.448;4.638;2024-01-06T04:23:57;15.50;99.90
17331;DHT22;8783;52.448;4.638;2024-01-06T04:26:23;15.50;99.90
17331;DHT22;8783;52.448;4.638;2024-01-06T04:28:48;15.50;99.90
17331;DHT22;8783;52.448;4.638;2024-01-06T04:31:14;15.50;99.90
17331;DHT22;8783;52.448;4.638;2024-01-06T04:33:40;15.50;99.90
17331;DHT22;8783;52.448;4.638;2024-01-06T04:36:06;15.50;99.90
17331;DHT22;8783;52.448;4.638;2024-01-06T04:38:32;15.50;99.90
17331;DHT22;8783;52.448;4.638;2024-01-06T04:41:00;15.50;99.90
17331;DHT22;8783;52.448;4.638;2024-01-06T04:43:26;15.40;99.90
17331;DHT22;8783;52.448;4.638;2024-01-06T04:45:51;15.50;99.90
17331;DHT22;8783;52.448;4.638;2024-01-06T04:48:17;15.40;99.90
17331;DHT22;8783;52.448;4.638;2024-01-06T04:50:43;15.50;99.90
17331;DHT22;8783;52.448;4.638;2024-01-06T04:53:08;15.50;99.90
17331;DHT22;8783;52.448;4.638;2024-01-06T04:55:34;15.40;99.90
17331;DHT22;8783;52.448;4.638;2024-01-06T04:58:00;15.50;99.90
17331;DHT22;8783;52.448;4.638;2024-01-06T05:00:25;15.40;99.90
17331;DHT22;8783;52.448;4.638;2024-01-06T05:02:51;15.40;99.90
17331;DHT22;8783;52.448;4.638;2024-01-06T05:05:17;15.40;99.90
17331;DHT22;8783;52.448;4.638;2024-01-06T05:07:43;15.40;99.90
17331;DHT22;8783;52.448;4.638;2024-01-06T05:10:09;15.50;99.90
17331;DHT22;8783;52.448;4.638;2024-01-06T05:12:34;15.50;99.90
17331;DHT22;8783;52.448;4.638;2024-01-06T05:15:00;15.40;99.90
17331;DHT22;8783;52.448;4.638;2024-01-06T05:17:25;15.40;99.90
17331;DHT22;8783;52.448;4.638;2024-01-06T05:19:51;15.40;99.90
17331;DHT22;8783;52.448;4.638;2024-01-06T05:22:17;15.40;99.90
17331;DHT22;8783;52.448;4.638;2024-01-06T05:24:42;15.40;99.90
17331;DHT22;8783;52.448;4.638;2024-01-06T05:27:09;15.40;99.90
17331;DHT22;8783;52.448;4.638;2024-01-06T05:29:35;15.50;99.90
17331;DHT22;8783;52.448;4.638;2024-01-06T05:32:01;15.40;99.90
17331;DHT22;8783;52.448;4.638;2024-01-06T05:34:27;15.40;99.90
17331;DHT22;8783;52.448;4.638;2024-01-06T05:36:52;15.40;99.90
17331;DHT22;8783;52.448;4.638;2024-01-06T05:39:18;15.40;99.90
17331;DHT22;8783;52.448;4.638;2024-01-06T05:41:44;15.40;99.90
17331;DHT22;8783;52.448;4.638;2024-01-06T05:44:10;15.40;99.90
17331;DHT22;8783;52.448;4.638;2024-01-06T05:46:36;15.40;99.90
17331;DHT22;8783;52.448;4.638;2024-01-06T05:49:02;15.40;99.90
17331;DHT22;8783;52.448;4.638;2024-01-06T05:51:30;15.40;99.90
17331;DHT22;8783;52.448;4.638;2024-01-06T05:53:56;15.40;99.90
17331;DHT22;8783;52.448;4.638;2024-01-06T05:56:26;15.40;99.90
17331;DHT22;8783;52.448;4.638;2024-01-06T05:58:52;15.40;99.90
17331;DHT22;8783;52.448;4.638;2024-01-06T06:01:19;15.40;99.90
17331;DHT22;8783;52.448;4.638;2024-01-06T06:03:46;15.40;99.90
17331;DHT22;8783;52.448;4.638;2024-01-06T06:06:11;15.40;99.90
17331;DHT22;8783;52.448;4.638;2024-01-06T06:08:37;15.40;99.90
17331;DHT22;8783;52.448;4.638;2024-01-06T06:11:03;15.40;99.90
17331;DHT22;8783;52.448;4.638;2024-01-06T06:13:39;15.40;99.90
17331;DHT22;8783;52.448;4.638;2024-01-06T06:16:06;15.40;99.90
17331;DHT22;8783;52.448;4.638;2024-01-06T06:18:32;15.40;99.90
17331;DHT22;8783;52.448;4.638;2024-01-06T06:20:59;15.40;99.90
17331;DHT22;8783;52.448;4.638;2024-01-06T06:23:26;15.40;99.90
17331;DHT22;8783;52.448;4.638;2024-01-06T06:25:51;15.40;99.90
17331;DHT22;8783;52.448;4.638;2024-01-06T06:28:17;15.40;99.90
17331;DHT22;8783;52.448;4.638;2024-01-06T06:30:43;15.40;99.90
17331;DHT22;8783;52.448;4.638;2024-01-06T06:33:08;15.40;99.90
17331;DHT22;8783;52.448;4.638;2024-01-06T06:35:34;15.40;99.90
17331;DHT22;8783;52.448;4.638;2024-01-06T06:38:00;15.40;99.90
17331;DHT22;8783;52.448;4.638;2024-01-06T06:40:25;15.40;99.90
17331;DHT22;8783;52.448;4.638;2024-01-06T06:42:51;15.40;99.90
17331;DHT22;8783;52.448;4.638;2024-01-06T06:45:17;15.40;99.90
17331;DHT22;8783;52.448;4.638;2024-01-06T06:47:46;15.40;99.90
17331;DHT22;8783;52.448;4.638;2024-01-06T06:50:11;15.40;99.90
17331;DHT22;8783;52.448;4.638;2024-01-06T06:52:37;15.40;99.90
17331;DHT22;8783;52.448;4.638;2024-01-06T06:55:03;15.40;99.90
17331;DHT22;8783;52.448;4.638;2024-01-06T06:57:28;15.40;99.90
17331;DHT22;8783;52.448;4.638;2024-01-06T06:59:54;15.40;99.90
17331;DHT22;8783;52.448;4.638;2024-01-06T07:02:20;15.50;99.90
17331;DHT22;8783;52.448;4.638;2024-01-06T07:04:45;15.50;99.90
17331;DHT22;8783;52.448;4.638;2024-01-06T07:07:11;15.50;99.90
17331;DHT22;8783;52.448;4.638;2024-01-06T07:09:36;15.50;99.90
17331;DHT22;8783;52.448;4.638;2024-01-06T07:12:02;15.50;99.90
17331;DHT22;8783;52.448;4.638;2024-01-06T07:14:28;15.60;99.90
17331;DHT22;8783;52.448;4.638;2024-01-06T07:16:53;15.60;99.90
17331;DHT22;8783;52.448;4.638;2024-01-06T07:19:19;15.60;99.90
17331;DHT22;8783;52.448;4.638;2024-01-06T07:21:44;15.60;99.90
17331;DHT22;8783;52.448;4.638;2024-01-06T07:24:10;15.60;99.90
17331;DHT22;8783;52.448;4.638;2024-01-06T07:26:35;15.60;99.90
17331;DHT22;8783;52.448;4.638;2024-01-06T07:29:02;15.60;99.90
17331;DHT22;8783;52.448;4.638;2024-01-06T07:31:27;15.60;99.90
17331;DHT22;8783;52.448;4.638;2024-01-06T07:33:53;15.60;99.90
17331;DHT22;8783;52.448;4.638;2024-01-06T07:36:21;15.60;99.90
17331;DHT22;8783;52.448;4.638;2024-01-06T07:38:47;15.60;99.90
17331;DHT22;8783;52.448;4.638;2024-01-06T07:41:13;15.60;99.90
17331;DHT22;8783;52.448;4.638;2024-01-06T07:43:39;15.60;99.90
17331;DHT22;8783;52.448;4.638;2024-01-06T07:46:05;15.60;99.90
17331;DHT22;8783;52.448;4.638;2024-01-06T07:48:32;15.60;99.90
17331;DHT22;8783;52.448;4.638;2024-01-06T07:50:57;15.60;99.90
17331;DHT22;8783;52.448;4.638;2024-01-06T07:53:23;15.70;99.90
17331;DHT22;8783;52.448;4.638;2024-01-06T07:55:49;15.70;99.90
17331;DHT22;8783;52.448;4.638;2024-01-06T07:58:14;15.60;99.90
17331;DHT22;8783;52.448;4.638;2024-01-06T08:00:41;15.70;99.90
17331;DHT22;8783;52.448;4.638;2024-01-06T08:03:06;15.60;99.90
17331;DHT22;8783;52.448;4.638;2024-01-06T08:05:35;15.70;99.90
17331;DHT22;8783;52.448;4.638;2024-01-06T08:08:00;15.70;99.90
17331;DHT22;8783;52.448;4.638;2024-01-06T08:10:29;15.70;99.90
17331;DHT22;8783;52.448;4.638;2024-01-06T08:12:55;15.70;99.90
17331;DHT22;8783;52.448;4.638;2024-01-06T08:15:20;15.70;99.90
17331;DHT22;8783;52.448;4.638;2024-01-06T08:17:46;15.70;99.90
17331;DHT22;8783;52.448;4.638;2024-01-06T08:20:12;15.70;99.90
17331;DHT22;8783;52.448;4.638;2024-01-06T08:22:38;15.70;99.90
17331;DHT22;8783;52.448;4.638;2024-01-06T08:25:04;15.70;99.90
17331;DHT22;8783;52.448;4.638;2024-01-06T08:27:32;15.70;99.90
17331;DHT22;8783;52.448;4.638;2024-01-06T08:29:58;15.70;99.90
17331;DHT22;8783;52.448;4.638;2024-01-06T08:32:24;15.70;99.90
17331;DHT22;8783;52.448;4.638;2024-01-06T08:34:49;15.70;99.90
17331;DHT22;8783;52.448;4.638;2024-01-06T08:37:15;15.70;99.90
17331;DHT22;8783;52.448;4.638;2024-01-06T08:39:40;15.70;99.90
17331;DHT22;8783;52.448;4.638;2024-01-06T08:42:06;15.70;99.90
17331;DHT22;8783;52.448;4.638;2024-01-06T08:44:32;15.70;99.90
17331;DHT22;8783;52.448;4.638;2024-01-06T08:46:58;15.60;99.90
17331;DHT22;8783;52.448;4.638;2024-01-06T08:49:25;15.70;99.90
17331;DHT22;8783;52.448;4.638;2024-01-06T08:51:51;15.70;99.90
17331;DHT22;8783;52.448;4.638;2024-01-06T08:54:17;15.70;99.90
17331;DHT22;8783;52.448;4.638;2024-01-06T08:56:43;15.70;99.90
17331;DHT22;8783;52.448;4.638;2024-01-06T08:59:12;15.70;99.90
17331;DHT22;8783;52.448;4.638;2024-01-06T09:01:38;15.60;99.90
17331;DHT22;8783;52.448;4.638;2024-01-06T09:04:04;15.70;99.90
17331;DHT22;8783;52.448;4.638;2024-01-06T09:06:33;15.60;99.90
17331;DHT22;8783;52.448;4.638;2024-01-06T09:08:58;15.70;99.90
17331;DHT22;8783;52.448;4.638;2024-01-06T09:11:24;15.60;99.90
17331;DHT22;8783;52.448;4.638;2024-01-06T09:13:49;15.70;99.90
17331;DHT22;8783;52.448;4.638;2024-01-06T09:16:18;15.70;99.90
17331;DHT22;8783;52.448;4.638;2024-01-06T09:18:44;15.70;99.90
17331;DHT22;8783;52.448;4.638;2024-01-06T09:21:10;15.70;99.90
17331;DHT22;8783;52.448;4.638;2024-01-06T09:23:35;15.70;99.90
17331;DHT22;8783;52.448;4.638;2024-01-06T09:26:01;15.70;99.90
17331;DHT22;8783;52.448;4.638;2024-01-06T09:28:26;15.70;99.90
17331;DHT22;8783;52.448;4.638;2024-01-06T09:30:53;15.70;99.90
17331;DHT22;8783;52.448;4.638;2024-01-06T09:33:21;15.70;99.90
17331;DHT22;8783;52.448;4.638;2024-01-06T09:35:50;15.70;99.90
17331;DHT22;8783;52.448;4.638;2024-01-06T09:38:18;15.70;99.90
17331;DHT22;8783;52.448;4.638;2024-01-06T09:40:48;15.70;99.90
17331;DHT22;8783;52.448;4.638;2024-01-06T09:43:20;15.70;99.90
17331;DHT22;8783;52.448;4.638;2024-01-06T09:45:51;15.70;99.90
17331;DHT22;8783;52.448;4.638;2024-01-06T09:48:23;15.70;99.90
17331;DHT22;8783;52.448;4.638;2024-01-06T09:51:01;15.70;99.90
17331;DHT22;8783;52.448;4.638;2024-01-06T09:53:40;15.70;99.90
17331;DHT22;8783;52.448;4.638;2024-01-06T09:56:08;15.70;99.90
17331;DHT22;8783;52.448;4.638;2024-01-06T09:58:38;15.70;99.90
17331;DHT22;8783;52.448;4.638;2024-01-06T10:01:08;15.70;99.90
17331;DHT22;8783;52.448;4.638;2024-01-06T10:03:38;15.70;99.90
17331;DHT22;8783;52.448;4.638;2024-01-06T10:06:04;15.70;99.90
17331;DHT22;8783;52.448;4.638;2024-01-06T10:08:37;15.70;99.90
17331;DHT22;8783;52.448;4.638;2024-01-06T10:11:06;15.70;99.90
17331;DHT22;8783;52.448;4.638;2024-01-06T10:13:36;15.80;99.90
17331;DHT22;8783;52.448;4.638;2024-01-06T10:16:06;15.80;99.90
17331;DHT22;8783;52.448;4.638;2024-01-06T10:18:31;15.80;99.90
17331;DHT22;8783;52.448;4.638;2024-01-06T10:20:58;15.80;99.90
17331;DHT22;8783;52.448;4.638;2024-01-06T10:23:27;15.80;99.90
17331;DHT22;8783;52.448;4.638;2024-01-06T10:25:53;15.80;99.90
17331;DHT22;8783;52.448;4.638;2024-01-06T10:28:25;15.80;99.90
17331;DHT22;8783;52.448;4.638;2024-01-06T10:30:55;15.90;99.90
17331;DHT22;8783;52.448;4.638;2024-01-06T10:33:25;15.90;99.90
17331;DHT22;8783;52.448;4.638;2024-01-06T10:35:53;15.90;99.90
17331;DHT22;8783;52.448;4.638;2024-01-06T10:38:20;16.00;99.90
17331;DHT22;8783;52.448;4.638;2024-01-06T10:41:03;15.90;99.90
17331;DHT22;8783;52.448;4.638;2024-01-06T10:43:36;16.00;99.90
17331;DHT22;8783;52.448;4.638;2024-01-06T10:46:07;16.00;99.90
17331;DHT22;8783;52.448;4.638;2024-01-06T10:48:38;16.00;99.90
17331;DHT22;8783;52.448;4.638;2024-01-06T10:51:08;16.00;99.90
17331;DHT22;8783;52.448;4.638;2024-01-06T10:53:34;16.10;99.90
17331;DHT22;8783;52.448;4.638;2024-01-06T10:56:11;16.10;99.90
17331;DHT22;8783;52.448;4.638;2024-01-06T10:58:46;16.10;99.90
17331;DHT22;8783;52.448;4.638;2024-01-06T11:01:13;16.10;99.90
17331;DHT22;8783;52.448;4.638;2024-01-06T11:03:39;16.10;99.90
17331;DHT22;8783;52.448;4.638;2024-01-06T11:06:06;16.10;99.90
17331;DHT22;8783;52.448;4.638;2024-01-06T11:08:42;16.20;99.90
17331;DHT22;8783;52.448;4.638;2024-01-06T11:11:18;16.20;99.90
17331;DHT22;8783;52.448;4.638;2024-01-06T11:13:45;16.20;99.90
17331;DHT22;8783;52.448;4.638;2024-01-06T11:16:37;16.20;99.90
17331;DHT22;8783;52.448;4.638;2024-01-06T11:19:41;16.20;99.90
17331;DHT22;8783;52.448;4.638;2024-01-06T11:21:48;16.20;99.90
17331;DHT22;8783;52.448;4.638;2024-01-06T11:24:19;16.30;99.90
17331;DHT22;8783;52.448;4.638;2024-01-06T11:26:51;16.30;99.90
17331;DHT22;8783;52.448;4.638;2024-01-06T11:29:18;16.30;99.90
17331;DHT22;8783;52.448;4.638;2024-01-06T11:34:42;16.30;99.90
17331;DHT22;8783;52.448;4.638;2024-01-06T11:37:07;16.40;99.90
17331;DHT22;8783;52.448;4.638;2024-01-06T11:39:40;16.40;99.90
17331;DHT22;8783;52.448;4.638;2024-01-06T11:42:10;16.30;99.90
17331;DHT22;8783;52.448;4.638;2024-01-06T11:44:38;16.40;99.90
17331;DHT22;8783;52.448;4.638;2024-01-06T11:47:05;16.40;99.90
17331;DHT22;8783;52.448;4.638;2024-01-06T11:49:31;16.40;99.90
17331;DHT22;8783;52.448;4.638;2024-01-06T11:51:58;16.40;99.90
17331;DHT22;8783;52.448;4.638;2024-01-06T11:54:23;16.40;99.90
17331;DHT22;8783;52.448;4.638;2024-01-06T11:56:49;16.40;99.90
17331;DHT22;8783;52.448;4.638;2024-01-06T11:59:15;16.40;99.90
17331;DHT22;8783;52.448;4.638;2024-01-06T12:01:41;16.40;99.90
17331;DHT22;8783;52.448;4.638;2024-01-06T12:04:06;16.30;99.90
17331;DHT22;8783;52.448;4.638;2024-01-06T12:06:33;16.30;99.90
17331;DHT22;8783;52.448;4.638;2024-01-06T12:09:12;16.30;99.90
17331;DHT22;8783;52.448;4.638;2024-01-06T12:11:41;16.30;99.90
17331;DHT22;8783;52.448;4.638;2024-01-06T12:14:07;16.30;99.90
17331;DHT22;8783;52.448;4.638;2024-01-06T12:16:32;16.30;99.90
17331;DHT22;8783;52.448;4.638;2024-01-06T12:18:59;16.30;99.90
17331;DHT22;8783;52.448;4.638;2024-01-06T12:21:27;16.30;99.90
17331;DHT22;8783;52.448;4.638;2024-01-06T12:23:53;16.40;99.90
17331;DHT22;8783;52.448;4.638;2024-01-06T12:26:19;16.40;99.90
17331;DHT22;8783;52.448;4.638;2024-01-06T12:28:54;16.40;99.90
17331;DHT22;8783;52.448;4.638;2024-01-06T12:31:20;16.40;99.90
17331;DHT22;8783;52.448;4.638;2024-01-06T12:33:46;16.50;99.90
17331;DHT22;8783;52.448;4.638;2024-01-06T12:36:11;16.50;99.90
17331;DHT22;8783;52.448;4.638;2024-01-06T12:38:37;16.50;99.90
17331;DHT22;8783;52.448;4.638;2024-01-06T12:41:06;16.50;99.90
17331;DHT22;8783;52.448;4.638;2024-01-06T12:43:31;16.50;99.90
17331;DHT22;8783;52.448;4.638;2024-01-06T12:45:57;16.60;99.90
17331;DHT22;8783;52.448;4.638;2024-01-06T12:48:23;16.60;99.90
17331;DHT22;8783;52.448;4.638;2024-01-06T12:50:49;16.60;99.90
17331;DHT22;8783;52.448;4.638;2024-01-06T12:53:15;16.60;99.90
17331;DHT22;8783;52.448;4.638;2024-01-06T12:55:43;16.70;99.90
17331;DHT22;8783;52.448;4.638;2024-01-06T12:58:08;16.70;99.90
17331;DHT22;8783;52.448;4.638;2024-01-06T13:00:34;16.70;99.90
17331;DHT22;8783;52.448;4.638;2024-01-06T13:03:04;16.70;99.90
17331;DHT22;8783;52.448;4.638;2024-01-06T13:05:30;16.70;99.90
17331;DHT22;8783;52.448;4.638;2024-01-06T13:07:55;16.70;99.90
17331;DHT22;8783;52.448;4.638;2024-01-06T13:10:23;16.80;99.90
17331;DHT22;8783;52.448;4.638;2024-01-06T13:12:48;16.80;99.90
17331;DHT22;8783;52.448;4.638;2024-01-06T13:15:14;16.70;99.90
17331;DHT22;8783;52.448;4.638;2024-01-06T13:17:39;16.80;99.90
17331;DHT22;8783;52.448;4.638;2024-01-06T13:20:06;16.80;99.90
17331;DHT22;8783;52.448;4.638;2024-01-06T13:22:33;16.80;99.90
17331;DHT22;8783;52.448;4.638;2024-01-06T13:24:59;16.80;99.90
17331;DHT22;8783;52.448;4.638;2024-01-06T13:27:25;16.80;99.90
17331;DHT22;8783;52.448;4.638;2024-01-06T13:29:53;16.90;99.90
17331;DHT22;8783;52.448;4.638;2024-01-06T13:32:19;16.80;99.90
17331;DHT22;8783;52.448;4.638;2024-01-06T13:34:45;16.90;99.90
17331;DHT22;8783;52.448;4.638;2024-01-06T13:37:10;16.80;99.90
17331;DHT22;8783;52.448;4.638;2024-01-06T13:39:36;16.90;99.90
17331;DHT22;8783;52.448;4.638;2024-01-06T13:42:02;16.90;99.90
17331;DHT22;8783;52.448;4.638;2024-01-06T13:44:31;16.90;99.90
17331;DHT22;8783;52.448;4.638;2024-01-06T13:46:57;16.80;99.90
17331;DHT22;8783;52.448;4.638;2024-01-06T13:49:23;16.90;99.90
17331;DHT22;8783;52.448;4.638;2024-01-06T13:51:51;16.90;99.90
17331;DHT22;8783;52.448;4.638;2024-01-06T13:54:17;16.90;99.90
17331;DHT22;8783;52.448;4.638;2024-01-06T13:56:42;16.90;99.90
17331;DHT22;8783;52.448;4.638;2024-01-06T13:59:08;16.90;99.90
17331;DHT22;8783;52.448;4.638;2024-01-06T14:01:33;16.90;99.90
17331;DHT22;8783;52.448;4.638;2024-01-06T14:04:00;16.90;99.90
17331;DHT22;8783;52.448;4.638;2024-01-06T14:06:26;16.90;99.90
17331;DHT22;8783;52.448;4.638;2024-01-06T14:08:59;16.90;99.90
17331;DHT22;8783;52.448;4.638;2024-01-06T14:11:25;16.90;99.90
17331;DHT22;8783;52.448;4.638;2024-01-06T14:13:52;16.90;99.90
17331;DHT22;8783;52.448;4.638;2024-01-06T14:16:18;16.90;99.90
17331;DHT22;8783;52.448;4.638;2024-01-06T14:18:44;16.90;99.90
17331;DHT22;8783;52.448;4.638;2024-01-06T14:21:10;16.90;99.90
17331;DHT22;8783;52.448;4.638;2024-01-06T14:23:36;16.90;99.90
17331;DHT22;8783;52.448;4.638;2024-01-06T14:26:02;16.90;99.90
17331;DHT22;8783;52.448;4.638;2024-01-06T14:28:28;16.90;99.90
17331;DHT22;8783;52.448;4.638;2024-01-06T14:30:56;16.90;99.90
17331;DHT22;8783;52.448;4.638;2024-01-06T14:33:22;16.90;99.90
17331;DHT22;8783;52.448;4.638;2024-01-06T14:35:48;16.90;99.90
17331;DHT22;8783;52.448;4.638;2024-01-06T14:38:14;16.90;99.90
17331;DHT22;8783;52.448;4.638;2024-01-06T14:40:39;16.90;99.90
17331;DHT22;8783;52.448;4.638;2024-01-06T14:43:05;16.90;99.90
17331;DHT22;8783;52.448;4.638;2024-01-06T14:45:32;16.90;99.90
17331;DHT22;8783;52.448;4.638;2024-01-06T14:47:57;16.90;99.90
17331;DHT22;8783;52.448;4.638;2024-01-06T14:50:23;16.90;99.90
17331;DHT22;8783;52.448;4.638;2024-01-06T14:52:49;16.90;99.90
17331;DHT22;8783;52.448;4.638;2024-01-06T14:55:15;16.90;99.90
17331;DHT22;8783;52.448;4.638;2024-01-06T14:57:41;17.00;99.90
17331;DHT22;8783;52.448;4.638;2024-01-06T15:00:08;16.90;99.90
17331;DHT22;8783;52.448;4.638;2024-01-06T15:02:36;16.90;99.90
17331;DHT22;8783;52.448;4.638;2024-01-06T15:05:02;16.90;99.90
17331;DHT22;8783;52.448;4.638;2024-01-06T15:07:30;16.90;99.90
17331;DHT22;8783;52.448;4.638;2024-01-06T15:09:58;17.00;99.90
17331;DHT22;8783;52.448;4.638;2024-01-06T15:12:24;17.00;99.90
17331;DHT22;8783;52.448;4.638;2024-01-06T15:14:50;17.10;99.90
17331;DHT22;8783;52.448;4.638;2024-01-06T15:17:15;17.40;99.90
17331;DHT22;8783;52.448;4.638;2024-01-06T15:19:44;17.50;99.90
17331;DHT22;8783;52.448;4.638;2024-01-06T15:22:10;17.70;99.90
17331;DHT22;8783;52.448;4.638;2024-01-06T15:24:35;17.90;99.90
17331;DHT22;8783;52.448;4.638;2024-01-06T15:27:01;17.90;99.90
17331;DHT22;8783;52.448;4.638;2024-01-06T15:29:27;18.10;99.90
17331;DHT22;8783;52.448;4.638;2024-01-06T15:31:53;18.00;99.90
17331;DHT22;8783;52.448;4.638;2024-01-06T15:34:23;18.20;99.90
17331;DHT22;8783;52.448;4.638;2024-01-06T15:36:49;18.20;99.90
17331;DHT22;8783;52.448;4.638;2024-01-06T15:39:14;18.20;99.90
17331;DHT22;8783;52.448;4.638;2024-01-06T15:41:40;18.30;99.90
17331;DHT22;8783;52.448;4.638;2024-01-06T15:44:06;18.30;99.90